createdAt,value
2018-08-18T00:00:24.435Z,21.75
2018-08-18T00:02:53.398Z,21.77
2018-08-18T00:05:22.459Z,21.79
2018-08-18T00:07:51.414Z,21.72
2018-08-18T00:10:22.172Z,21.69
2018-08-18T00:12:51.519Z,21.62
2018-08-18T00:15:20.409Z,21.65
2018-08-18T00:17:49.367Z,21.61
2018-08-18T00:20:21.406Z,21.55
2018-08-18T00:22:50.358Z,21.56
2018-08-18T00:25:19.355Z,21.53
2018-08-18T00:27:48.235Z,21.62
2018-08-18T00:30:22.320Z,21.54
2018-08-18T00:32:51.380Z,21.53
2018-08-18T00:35:20.412Z,21.48
2018-08-18T00:37:49.411Z,21.48
2018-08-18T00:40:18.314Z,21.41
2018-08-18T00:42:47.316Z,21.39
2018-08-18T00:45:16.311Z,21.33
2018-08-18T00:47:45.272Z,21.29
2018-08-18T00:50:22.730Z,21.31
2018-08-18T00:52:51.638Z,21.38
2018-08-18T00:55:20.577Z,21.39
2018-08-18T00:57:49.539Z,21.37
2018-08-18T01:00:18.518Z,21.31
2018-08-18T01:02:47.407Z,21.29
2018-08-18T01:05:16.368Z,21.18
2018-08-18T01:07:45.259Z,21.19
2018-08-18T01:10:14.224Z,21.19
2018-08-18T01:12:43.230Z,21.20
2018-08-18T01:15:16.320Z,21.16
2018-08-18T01:17:45.191Z,21.20
2018-08-18T01:20:14.107Z,21.26
2018-08-18T01:22:47.132Z,21.20
2018-08-18T01:25:16.152Z,21.17
2018-08-18T01:27:51.055Z,21.17
2018-08-18T01:30:20.086Z,21.24
2018-08-18T01:32:49.131Z,21.20
2018-08-18T01:35:18.223Z,21.11
2018-08-18T01:37:47.144Z,21.11
2018-08-18T01:40:16.096Z,21.10
2018-08-18T01:42:45.034Z,21.07
2018-08-18T01:45:13.931Z,21.03
2018-08-18T01:47:42.889Z,20.96
2018-08-18T01:50:16.960Z,20.89
2018-08-18T01:52:45.955Z,20.86
2018-08-18T01:55:15.964Z,20.89
2018-08-18T01:57:45.150Z,20.88
2018-08-18T02:00:26.295Z,20.81
2018-08-18T02:02:55.330Z,20.83
2018-08-18T02:05:24.395Z,20.87
2018-08-18T02:07:53.313Z,20.80
2018-08-18T02:10:22.218Z,20.83
2018-08-18T02:13:04.387Z,20.83
2018-08-18T02:15:33.330Z,20.77
2018-08-18T02:18:02.244Z,20.80
2018-08-18T02:20:31.219Z,20.79
2018-08-18T02:23:00.137Z,20.72
2018-08-18T02:25:29.038Z,20.71
2018-08-18T02:27:57.983Z,20.72
2018-08-18T02:30:26.878Z,20.70
2018-08-18T02:32:55.833Z,20.61
2018-08-18T02:35:24.872Z,20.58
2018-08-18T02:37:53.895Z,20.66
2018-08-18T02:40:22.903Z,20.62
2018-08-18T02:42:51.831Z,20.62
2018-08-18T02:45:20.741Z,20.64
2018-08-18T02:47:55.659Z,20.62
2018-08-18T02:50:24.703Z,20.56
2018-08-18T02:52:53.764Z,20.48
2018-08-18T02:55:22.692Z,20.41
2018-08-18T02:57:51.581Z,20.37
2018-08-18T03:00:25.584Z,20.36
2018-08-18T03:02:54.659Z,20.38
2018-08-18T03:05:23.583Z,20.34
2018-08-18T03:07:53.225Z,20.34
2018-08-18T03:10:23.780Z,20.36
2018-08-18T03:12:55.726Z,20.35
2018-08-18T03:16:01.860Z,20.44
2018-08-18T03:19:01.044Z,20.36
2018-08-18T03:21:35.060Z,20.35
2018-08-18T03:24:11.494Z,20.27
2018-08-18T03:26:42.530Z,20.26
2018-08-18T03:29:12.226Z,20.28
2018-08-18T03:31:41.622Z,20.25
2018-08-18T03:34:11.428Z,20.20
2018-08-18T03:36:42.084Z,20.11
2018-08-18T03:39:19.559Z,20.12
2018-08-18T03:41:48.672Z,20.13
2018-08-18T03:44:17.634Z,20.09
2018-08-18T03:46:46.641Z,20.09
2018-08-18T03:49:15.615Z,20.16
2018-08-18T03:51:46.650Z,20.16
2018-08-18T03:54:15.713Z,20.15
2018-08-18T03:56:45.058Z,20.26
2018-08-18T03:59:14.069Z,20.32
2018-08-18T04:01:55.150Z,20.35
2018-08-18T04:04:25.394Z,20.32
2018-08-18T04:06:56.487Z,20.39
2018-08-18T04:09:28.452Z,20.44
2018-08-18T04:11:59.600Z,20.41
2018-08-18T04:14:33.559Z,20.48
2018-08-18T04:17:02.466Z,20.51
2018-08-18T04:19:31.418Z,20.51
2018-08-18T04:22:00.323Z,20.56
2018-08-18T04:24:48.035Z,20.55
2018-08-18T04:27:50.227Z,20.58
2018-08-18T04:30:21.748Z,20.64
2018-08-18T04:32:59.802Z,20.65
2018-08-18T04:35:29.852Z,20.64
2018-08-18T04:37:59.891Z,20.58
2018-08-18T04:40:28.886Z,20.62
2018-08-18T04:42:59.035Z,20.73
2018-08-18T04:45:28.015Z,20.83
2018-08-18T04:47:56.924Z,20.90
2018-08-18T04:50:25.891Z,20.91
2018-08-18T04:52:55.474Z,20.93
2018-08-18T04:55:24.435Z,21.01
2018-08-18T04:57:53.370Z,21.03
2018-08-18T05:00:22.279Z,20.96
2018-08-18T05:02:57.039Z,20.72
2018-08-18T05:05:27.955Z,20.87
2018-08-18T05:07:58.737Z,20.88
2018-08-18T05:10:27.961Z,20.93
2018-08-18T05:12:56.959Z,20.93
2018-08-18T05:15:26.008Z,20.92
2018-08-18T05:17:54.907Z,20.86
2018-08-18T05:20:26.399Z,20.79
2018-08-18T05:22:57.176Z,20.83
2018-08-18T05:25:31.092Z,20.62
2018-08-18T05:28:00.576Z,20.81
2018-08-18T05:30:29.459Z,20.79
2018-08-18T05:32:58.352Z,20.90
2018-08-18T05:35:27.244Z,21.08
2018-08-18T05:37:56.139Z,21.24
2018-08-18T05:40:25.161Z,21.40
2018-08-18T05:42:54.227Z,21.47
2018-08-18T05:45:26.987Z,21.57
2018-08-18T05:47:56.299Z,21.74
2018-08-18T05:50:26.941Z,21.90
2018-08-18T05:53:19.537Z,22.07
2018-08-18T05:55:49.187Z,21.67
2018-08-18T05:58:18.172Z,22.05
2018-08-18T06:00:47.472Z,22.22
2018-08-18T06:03:19.207Z,21.61
2018-08-18T06:05:48.536Z,21.93
2018-08-18T06:08:17.463Z,21.85
2018-08-18T06:10:46.391Z,21.60
2018-08-18T06:13:23.474Z,22.00
2018-08-18T06:16:10.877Z,22.22
2018-08-18T06:18:40.820Z,22.42
2018-08-18T06:21:09.751Z,22.65
2018-08-18T06:23:39.592Z,22.96
2018-08-18T06:26:08.949Z,23.20
2018-08-18T06:28:37.937Z,23.40
2018-08-18T06:31:06.951Z,23.63
2018-08-18T06:33:35.855Z,23.71
2018-08-18T06:36:04.980Z,23.49
2018-08-18T06:38:33.934Z,23.05
2018-08-18T06:41:03.694Z,23.24
2018-08-18T06:43:33.855Z,23.44
2018-08-18T06:46:03.473Z,23.34
2018-08-18T06:48:35.344Z,23.24
2018-08-18T06:51:04.490Z,23.53
2018-08-18T06:53:38.518Z,23.27
2018-08-18T06:56:07.971Z,23.48
2018-08-18T06:58:37.228Z,23.36
2018-08-18T07:01:06.834Z,23.26
2018-08-18T07:03:39.655Z,23.47
2018-08-18T07:06:10.527Z,23.81
2018-08-18T07:08:56.700Z,24.03
2018-08-18T07:11:25.635Z,24.08
2018-08-18T07:13:54.632Z,24.28
2018-08-18T07:16:23.608Z,24.52
2018-08-18T07:18:52.600Z,24.62
2018-08-18T07:21:21.607Z,24.67
2018-08-18T07:23:50.547Z,24.63
2018-08-18T07:26:19.550Z,24.56
2018-08-18T07:28:48.598Z,24.69
2018-08-18T07:31:17.503Z,24.96
2018-08-18T07:33:46.395Z,25.12
2018-08-18T07:36:15.386Z,25.10
2018-08-18T07:38:44.372Z,25.16
2018-08-18T07:41:13.304Z,25.07
2018-08-18T07:43:42.328Z,25.27
2018-08-18T07:46:11.334Z,25.03
2018-08-18T07:48:40.380Z,25.20
2018-08-18T07:51:09.515Z,25.44
2018-08-18T07:53:38.602Z,25.61
2018-08-18T07:56:07.466Z,25.57
2018-08-18T07:58:38.147Z,25.72
2018-08-18T08:01:07.441Z,25.82
2018-08-18T08:03:36.363Z,25.58
2018-08-18T08:06:05.414Z,25.42
2018-08-18T08:08:39.495Z,25.72
2018-08-18T08:11:13.366Z,25.65
2018-08-18T08:13:42.412Z,25.61
2018-08-18T08:16:11.394Z,25.73
2018-08-18T08:18:40.373Z,25.79
2018-08-18T08:21:09.499Z,25.89
2018-08-18T08:23:38.416Z,26.04
2018-08-18T08:26:07.338Z,26.04
2018-08-18T08:28:36.286Z,26.13
2018-08-18T08:31:05.182Z,26.17
2018-08-18T08:33:37.039Z,26.22
2018-08-18T08:36:11.039Z,26.27
2018-08-18T08:38:53.855Z,26.09
2018-08-18T08:41:26.344Z,26.10
2018-08-18T08:43:55.420Z,26.23
2018-08-18T08:46:24.376Z,26.24
2018-08-18T08:48:56.447Z,26.34
2018-08-18T08:51:26.204Z,26.39
2018-08-18T08:53:57.373Z,26.59
2018-08-18T08:56:30.364Z,26.57
2018-08-18T08:58:59.478Z,26.68
2018-08-18T09:01:28.475Z,26.84
2018-08-18T09:03:57.408Z,26.95
2018-08-18T09:06:26.336Z,26.77
2018-08-18T09:08:58.407Z,26.73
2018-08-18T09:11:28.399Z,26.73
2018-08-18T09:14:03.271Z,26.65
2018-08-18T09:16:33.279Z,26.71
2018-08-18T09:19:02.256Z,26.80
2018-08-18T09:21:38.239Z,26.84
2018-08-18T09:24:07.480Z,26.85
2018-08-18T09:26:41.417Z,26.77
2018-08-18T09:29:10.399Z,26.74
2018-08-18T09:31:39.768Z,26.71
2018-08-18T09:34:08.769Z,26.78
2018-08-18T09:36:37.751Z,26.75
2018-08-18T09:39:09.750Z,26.89
2018-08-18T09:41:39.532Z,26.95
2018-08-18T09:44:11.632Z,26.98
2018-08-18T09:46:40.589Z,27.10
2018-08-18T09:49:09.547Z,27.04
2018-08-18T09:51:38.451Z,26.87
2018-08-18T09:54:07.471Z,27.05
2018-08-18T09:56:36.434Z,27.02
2018-08-18T09:59:05.435Z,27.08
2018-08-18T10:01:34.379Z,27.18
2018-08-18T10:04:03.423Z,27.24
2018-08-18T10:06:32.499Z,27.13
2018-08-18T10:09:01.539Z,27.07
2018-08-18T10:11:30.525Z,27.08
2018-08-18T10:13:59.516Z,27.16
2018-08-18T10:16:28.518Z,27.16
2018-08-18T10:18:58.170Z,27.18
2018-08-18T10:21:27.187Z,27.21
2018-08-18T10:23:56.347Z,27.19
2018-08-18T10:26:25.375Z,27.24
2018-08-18T10:29:10.994Z,27.28
2018-08-18T10:31:46.762Z,27.19
2018-08-18T10:34:16.439Z,27.28
2018-08-18T10:36:52.585Z,27.38
2018-08-18T10:39:22.479Z,27.51
2018-08-18T10:42:11.586Z,27.44
2018-08-18T10:44:50.768Z,27.49
2018-08-18T10:47:21.861Z,27.51
2018-08-18T10:50:01.854Z,27.51
2018-08-18T10:52:42.311Z,27.68
2018-08-18T10:55:12.645Z,27.62
2018-08-18T10:57:53.330Z,27.64
2018-08-18T11:00:24.003Z,27.62
2018-08-18T11:02:54.496Z,27.68
2018-08-18T11:05:24.442Z,27.54
2018-08-18T11:07:59.499Z,27.66
2018-08-18T11:10:30.432Z,27.60
2018-08-18T11:12:59.466Z,27.58
2018-08-18T11:15:28.647Z,27.46
2018-08-18T11:17:58.199Z,27.42
2018-08-18T11:20:29.578Z,27.45
2018-08-18T11:23:04.405Z,27.49
2018-08-18T11:25:36.852Z,27.55
2018-08-18T11:28:06.229Z,27.61
2018-08-18T11:30:35.145Z,27.67
2018-08-18T11:33:04.345Z,27.74
2018-08-18T11:35:33.935Z,27.61
2018-08-18T11:38:06.568Z,27.62
2018-08-18T11:40:35.589Z,27.55
2018-08-18T11:43:06.027Z,27.77
2018-08-18T11:45:36.197Z,27.79
2018-08-18T11:48:09.961Z,27.81
2018-08-18T11:50:39.276Z,27.72
2018-08-18T11:53:08.432Z,27.72
2018-08-18T11:55:38.162Z,27.70
2018-08-18T11:58:11.863Z,27.64
2018-08-18T12:00:48.151Z,27.55
2018-08-18T12:03:20.755Z,27.58
2018-08-18T12:05:52.504Z,27.59
2018-08-18T12:08:23.270Z,27.60
2018-08-18T12:10:53.879Z,27.53
2018-08-18T12:13:30.072Z,27.54
2018-08-18T12:16:07.993Z,27.60
2018-08-18T12:18:38.853Z,27.67
2018-08-18T12:21:07.983Z,27.71
2018-08-18T12:23:38.074Z,27.79
2018-08-18T12:26:09.937Z,27.86
2018-08-18T12:28:42.989Z,27.88
2018-08-18T12:31:14.062Z,27.89
2018-08-18T12:33:43.235Z,27.87
2018-08-18T12:36:12.287Z,27.72
2018-08-18T12:38:45.616Z,27.84
2018-08-18T12:41:14.748Z,27.77
2018-08-18T12:43:47.611Z,27.79
2018-08-18T12:46:17.952Z,27.92
2018-08-18T12:48:48.196Z,27.97
2018-08-18T12:51:18.270Z,28.09
2018-08-18T12:53:54.412Z,28.13
2018-08-18T12:56:26.133Z,28.18
2018-08-18T12:58:55.144Z,28.20
2018-08-18T13:01:37.071Z,28.18
2018-08-18T13:04:08.451Z,28.09
2018-08-18T13:06:43.525Z,28.09
2018-08-18T13:09:16.790Z,28.19
2018-08-18T13:11:47.269Z,28.17
2018-08-18T13:14:25.331Z,28.32
2018-08-18T13:16:54.448Z,28.34
2018-08-18T13:19:25.117Z,28.47
2018-08-18T13:21:54.289Z,28.45
2018-08-18T13:24:23.194Z,28.44
2018-08-18T13:26:52.215Z,28.42
2018-08-18T13:29:21.104Z,28.48
2018-08-18T13:31:50.294Z,28.45
2018-08-18T13:34:19.622Z,28.52
2018-08-18T13:36:48.601Z,28.55
2018-08-18T13:39:18.874Z,28.43
2018-08-18T13:41:48.871Z,28.51
2018-08-18T13:44:36.592Z,28.47
2018-08-18T13:47:05.533Z,28.40
2018-08-18T13:49:35.090Z,28.33
2018-08-18T13:52:04.118Z,28.42
2018-08-18T13:54:34.395Z,28.59
2018-08-18T13:57:03.458Z,28.61
2018-08-18T13:59:40.103Z,28.67
2018-08-18T14:02:09.872Z,28.60
2018-08-18T14:04:41.150Z,28.56
2018-08-18T14:07:10.608Z,28.60
2018-08-18T14:09:42.457Z,28.66
2018-08-18T14:12:16.222Z,28.59
2018-08-18T14:14:45.892Z,28.56
2018-08-18T14:17:15.715Z,28.46
2018-08-18T14:19:44.840Z,28.50
2018-08-18T14:22:13.964Z,28.59
2018-08-18T14:24:42.931Z,28.65
2018-08-18T14:27:14.365Z,28.66
2018-08-18T14:29:43.462Z,28.60
2018-08-18T14:32:18.419Z,28.64
2018-08-18T14:34:54.576Z,28.69
2018-08-18T14:37:23.646Z,28.64
2018-08-18T14:39:52.773Z,28.64
2018-08-18T14:42:21.840Z,28.59
2018-08-18T14:44:51.054Z,28.60
2018-08-18T14:47:20.032Z,28.60
2018-08-18T14:49:49.010Z,28.60
2018-08-18T14:52:18.003Z,28.58
2018-08-18T14:54:47.041Z,28.51
2018-08-18T14:57:16.029Z,28.56
2018-08-18T14:59:45.104Z,28.48
2018-08-18T15:02:14.032Z,28.44
2018-08-18T15:04:42.978Z,28.56
2018-08-18T15:07:11.972Z,28.59
2018-08-18T15:09:45.566Z,28.57
2018-08-18T15:12:14.549Z,28.63
2018-08-18T15:14:43.520Z,28.55
2018-08-18T15:17:12.553Z,28.62
2018-08-18T15:19:41.394Z,28.63
2018-08-18T15:22:11.695Z,28.56
2018-08-18T15:24:40.687Z,28.50
2018-08-18T15:27:09.778Z,28.43
2018-08-18T15:29:38.729Z,28.29
2018-08-18T15:32:07.708Z,28.23
2018-08-18T15:34:36.695Z,28.24
2018-08-18T15:37:05.787Z,28.28
2018-08-18T15:39:34.857Z,28.18
2018-08-18T15:42:03.962Z,28.13
2018-08-18T15:44:33.046Z,28.13
2018-08-18T15:47:01.955Z,28.15
2018-08-18T15:49:30.866Z,28.11
2018-08-18T15:51:59.797Z,28.12
2018-08-18T15:54:28.874Z,28.13
2018-08-18T15:56:57.923Z,28.07
2018-08-18T15:59:26.924Z,28.01
2018-08-18T16:01:56.170Z,27.98
2018-08-18T16:04:25.178Z,28.04
2018-08-18T16:06:54.248Z,28.04
2018-08-18T16:09:23.230Z,28.01
2018-08-18T16:11:52.389Z,28.02
2018-08-18T16:14:21.289Z,28.03
2018-08-18T16:16:59.715Z,28.03
2018-08-18T16:19:32.209Z,28.02
2018-08-18T16:22:02.072Z,27.97
2018-08-18T16:24:35.559Z,27.80
2018-08-18T16:27:06.424Z,27.96
2018-08-18T16:29:36.642Z,27.95
2018-08-18T16:32:20.712Z,27.80
2018-08-18T16:34:56.603Z,27.74
2018-08-18T16:37:27.352Z,27.68
2018-08-18T16:39:57.032Z,27.87
2018-08-18T16:42:26.058Z,27.82
2018-08-18T16:44:55.045Z,27.84
2018-08-18T16:47:24.251Z,27.77
2018-08-18T16:49:53.142Z,27.80
2018-08-18T16:52:22.118Z,27.61
2018-08-18T16:54:51.080Z,27.70
2018-08-18T16:57:20.631Z,27.62
2018-08-18T16:59:49.568Z,27.64
2018-08-18T17:02:30.910Z,27.47
2018-08-18T17:05:00.007Z,27.55
2018-08-18T17:07:28.949Z,27.58
2018-08-18T17:09:58.028Z,27.60
2018-08-18T17:12:30.930Z,27.48
2018-08-18T17:14:59.938Z,27.52
2018-08-18T17:17:29.100Z,27.62
2018-08-18T17:19:58.069Z,27.62
2018-08-18T17:22:27.194Z,27.67
2018-08-18T17:24:56.080Z,27.68
2018-08-18T17:27:27.832Z,27.74
2018-08-18T17:29:57.028Z,27.70
2018-08-18T17:32:27.743Z,27.70
2018-08-18T17:34:56.664Z,27.62
2018-08-18T17:37:25.860Z,27.52
2018-08-18T17:39:54.883Z,27.27
2018-08-18T17:42:23.967Z,27.30
2018-08-18T17:44:53.015Z,27.37
2018-08-18T17:47:22.256Z,27.44
2018-08-18T17:49:56.049Z,27.45
2018-08-18T17:52:25.190Z,27.50
2018-08-18T17:55:08.377Z,27.46
2018-08-18T17:57:38.322Z,27.51
2018-08-18T18:00:17.105Z,27.52
2018-08-18T18:02:51.970Z,27.52
2018-08-18T18:05:22.819Z,27.50
2018-08-18T18:07:55.890Z,27.57
2018-08-18T18:10:27.168Z,27.54
2018-08-18T18:12:56.307Z,27.54
2018-08-18T18:15:37.024Z,27.55
2018-08-18T18:18:07.152Z,27.49
2018-08-18T18:20:36.134Z,27.47
2018-08-18T18:23:06.386Z,27.32
2018-08-18T18:25:35.316Z,27.35
2018-08-18T18:28:04.396Z,27.29
2018-08-18T18:30:33.345Z,27.26
2018-08-18T18:33:02.435Z,27.26
2018-08-18T18:35:31.414Z,27.25
2018-08-18T18:38:02.894Z,27.20
2018-08-18T18:40:35.063Z,27.18
2018-08-18T18:43:04.409Z,27.13
2018-08-18T18:45:33.417Z,27.12
2018-08-18T18:48:02.407Z,27.09
2018-08-18T18:50:31.359Z,27.03
2018-08-18T18:53:00.305Z,27.05
2018-08-18T18:55:29.344Z,26.85
2018-08-18T18:58:09.505Z,26.92
2018-08-18T19:00:39.594Z,26.93
2018-08-18T19:03:10.553Z,26.92
2018-08-18T19:05:39.583Z,26.90
2018-08-18T19:08:16.458Z,26.88
2018-08-18T19:10:45.520Z,26.83
2018-08-18T19:13:14.541Z,26.82
2018-08-18T19:15:43.684Z,26.87
2018-08-18T19:18:13.687Z,26.85
2018-08-18T19:20:42.872Z,26.86
2018-08-18T19:23:16.577Z,26.82
2018-08-18T19:25:47.875Z,26.77
2018-08-18T19:28:19.692Z,26.74
2018-08-18T19:30:48.596Z,26.72
2018-08-18T19:33:18.144Z,26.70
2018-08-18T19:35:48.283Z,26.67
2018-08-18T19:38:18.228Z,26.68
2018-08-18T19:40:48.399Z,26.68
2018-08-18T19:43:21.199Z,26.62
2018-08-18T19:45:50.486Z,26.59
2018-08-18T19:48:21.439Z,26.56
2018-08-18T19:50:57.131Z,26.52
2018-08-18T19:53:29.136Z,25.43
2018-08-18T19:55:59.311Z,25.29
2018-08-18T19:58:28.965Z,25.65
2018-08-18T20:00:58.035Z,25.79
2018-08-18T20:03:27.284Z,26.00
2018-08-18T20:05:56.398Z,26.12
2018-08-18T20:08:26.854Z,26.12
2018-08-18T20:10:57.643Z,26.11
2018-08-18T20:13:28.271Z,26.11
2018-08-18T20:15:59.709Z,26.01
2018-08-18T20:18:28.879Z,25.91
2018-08-18T20:20:58.726Z,25.79
2018-08-18T20:23:27.881Z,25.89
2018-08-18T20:25:57.246Z,25.85
2018-08-18T20:28:26.132Z,25.26
2018-08-18T20:30:55.441Z,24.53
2018-08-18T20:33:24.516Z,24.70
2018-08-18T20:35:53.507Z,25.09
2018-08-18T20:38:22.823Z,25.38
2018-08-18T20:40:51.831Z,25.52
2018-08-18T20:43:21.006Z,25.61
2018-08-18T20:45:50.656Z,25.65
2018-08-18T20:48:21.752Z,25.67
2018-08-18T20:50:51.005Z,25.74
2018-08-18T20:53:20.112Z,25.78
2018-08-18T20:55:56.502Z,25.80
2018-08-18T20:58:25.834Z,25.77
2018-08-18T21:00:54.819Z,25.77
2018-08-18T21:03:57.414Z,25.74
2018-08-18T21:06:26.347Z,25.74
2018-08-18T21:08:55.506Z,25.69
2018-08-18T21:11:24.797Z,25.64
2018-08-18T21:13:53.820Z,25.67
2018-08-18T21:16:24.114Z,25.62
2018-08-18T21:18:53.117Z,25.56
2018-08-18T21:21:37.631Z,25.61
2018-08-18T21:24:06.713Z,25.59
2018-08-18T21:26:35.864Z,25.49
2018-08-18T21:29:04.945Z,25.54
2018-08-18T21:31:37.852Z,25.55
2018-08-18T21:34:08.008Z,25.51
2018-08-18T21:36:37.235Z,25.50
2018-08-18T21:39:08.646Z,25.39
2018-08-18T21:41:39.031Z,25.39
2018-08-18T21:44:10.022Z,25.42
2018-08-18T21:46:39.629Z,25.43
2018-08-18T21:49:09.098Z,25.41
2018-08-18T21:51:38.236Z,25.45
2018-08-18T21:54:07.324Z,25.40
2018-08-18T21:56:39.650Z,25.19
2018-08-18T21:59:10.356Z,24.89
2018-08-18T22:01:39.435Z,24.64
2018-08-18T22:04:09.216Z,24.47
2018-08-18T22:06:38.207Z,24.39
2018-08-18T22:09:19.289Z,24.34
2018-08-18T22:11:48.601Z,24.69
2018-08-18T22:14:18.561Z,24.87
2018-08-18T22:16:52.683Z,24.97
2018-08-18T22:19:22.510Z,25.04
2018-08-18T22:21:51.537Z,24.95
2018-08-18T22:24:20.675Z,25.00
2018-08-18T22:26:49.724Z,25.12
2018-08-18T22:29:20.127Z,25.25
2018-08-18T22:31:49.161Z,25.25
2018-08-18T22:34:18.113Z,25.18
2018-08-18T22:36:47.115Z,25.00
2018-08-18T22:39:16.163Z,25.07
2018-08-18T22:41:45.126Z,25.04
2018-08-18T22:44:14.104Z,24.81
2018-08-18T22:46:43.043Z,24.87
2018-08-18T22:49:12.092Z,24.95
2018-08-18T22:51:41.106Z,25.04
2018-08-18T22:54:10.142Z,25.07
2018-08-18T22:56:39.375Z,25.09
2018-08-18T22:59:09.153Z,25.10
2018-08-18T23:01:38.984Z,25.07
2018-08-18T23:04:23.508Z,25.11
2018-08-18T23:06:52.503Z,25.09
2018-08-18T23:09:21.456Z,25.02
2018-08-18T23:11:50.428Z,25.03
2018-08-18T23:14:19.371Z,25.07
2018-08-18T23:16:48.444Z,25.04
2018-08-18T23:19:17.359Z,25.02
2018-08-18T23:21:46.401Z,24.97
2018-08-18T23:24:28.458Z,24.89
2018-08-18T23:26:57.485Z,24.78
2018-08-18T23:29:26.503Z,24.82
2018-08-18T23:31:55.409Z,24.85
2018-08-18T23:34:24.666Z,24.88
2018-08-18T23:36:54.175Z,24.93
2018-08-18T23:39:23.413Z,25.01
2018-08-18T23:42:02.081Z,24.98
2018-08-18T23:44:31.082Z,24.72
2018-08-18T23:46:59.983Z,24.46
2018-08-18T23:49:29.030Z,24.22
2018-08-18T23:51:58.244Z,24.07
2018-08-18T23:54:27.159Z,24.05
2018-08-18T23:56:56.274Z,24.06
2018-08-18T23:59:25.296Z,24.11
